Gill, Texas
Current Conditions -  °F | °C
As of 6:55 PM on Wednesday 22 Oct 2014 (Local Time) from KASL Reporting Station
Clear Clear  
Wind Chill: 68°   Ceiling: Unl
Heat Index: 68°   Visibility: 10mi
Dew Point: 57°   Wind: 0mph
Humidity: 68%   Direction: NA
Pressure: 30.12"   Gusts: NA
Location:  32.4675°N, 94.3321°W
Report Text: KASL 222355Z AUTO 00000KT 10SM CLR 20/14 A3012 RMK AO1 T02020141 10261 20202
Loading
Personal Weather Stations






























Interactive Weather Map
Tropical Storm Tracking
New forecast layout! Learn more

10-Day Weather Forecast

Advertisements
Track Severe Weather on mobile